Time;durP1;ratioP1;P1;durP2;ratioP2;P2;SDS_P1;SDS_P2;PMS_P1;PMS_P2;Temp;Humidity;BMP_temperature;BMP_pressure;BME280_temperature;BME280_humidity;BME280_pressure;Samples;Min_cycle;Max_cycle;Signal;HPM_P1;HPM_P2
2021/07/10 00:00:52;;;;;;;21.10;18.90;;;;;;;;;;5034102;28;20054;-72
2021/07/10 00:03:18;;;;;;;21.48;19.40;;;;;;;;;;5037189;28;20056;-72
2021/07/10 00:05:44;;;;;;;22.00;19.80;;;;;;;;;;5034026;28;20044;-72
2021/07/10 00:08:11;;;;;;;22.92;20.60;;;;;;;;;;5021585;28;20575;-72
2021/07/10 00:10:37;;;;;;;23.80;21.40;;;;;;;;;;5030864;28;20406;-72
2021/07/10 00:13:03;;;;;;;23.25;20.85;;;;;;;;;;5034827;28;20128;-72
2021/07/10 00:15:29;;;;;;;23.85;21.42;;;;;;;;;;5027902;28;20533;-72
2021/07/10 00:17:55;;;;;;;21.85;19.55;;;;;;;;;;5034037;28;20033;-72
2021/07/10 00:20:22;;;;;;;23.80;21.27;;;;;;;;;;5033124;28;20416;-72
2021/07/10 00:22:49;;;;;;;22.60;20.20;;;;;;;;;;5033697;28;20143;-72
2021/07/10 00:25:16;;;;;;;22.58;20.42;;;;;;;;;;5013310;28;20037;-72
2021/07/10 00:27:43;;;;;;;21.67;19.60;;;;;;;;;;5034241;28;20036;-72
2021/07/10 00:30:10;;;;;;;23.73;20.92;;;;;;;;;;5029282;28;20040;-72
2021/07/10 00:32:36;;;;;;;24.05;21.58;;;;;;;;;;5034912;28;20532;-72
2021/07/10 00:35:03;;;;;;;24.17;21.73;;;;;;;;;;5013828;28;20049;-74
2021/07/10 00:37:29;;;;;;;23.90;21.33;;;;;;;;;;5032415;28;20061;-73
2021/07/10 00:39:55;;;;;;;24.15;21.67;;;;;;;;;;5032384;28;20116;-73
2021/07/10 00:42:22;;;;;;;23.67;21.20;;;;;;;;;;5035837;28;20060;-71
2021/07/10 00:44:49;;;;;;;23.45;20.92;;;;;;;;;;5023510;28;20053;-71
2021/07/10 00:47:15;;;;;;;23.17;20.83;;;;;;;;;;5030380;28;20040;-72
2021/07/10 00:49:41;;;;;;;26.13;23.42;;;;;;;;;;5039649;28;20100;-72
2021/07/10 00:52:07;;;;;;;23.98;21.63;;;;;;;;;;5028040;28;20041;-72
2021/07/10 00:54:34;;;;;;;22.42;20.13;;;;;;;;;;5037653;28;20527;-72
2021/07/10 00:57:04;;;;;;;23.83;21.15;;;;;;;;;;5027906;28;20421;-74
2021/07/10 00:59:32;;;;;;;26.75;23.55;;;;;;;;;;5034719;28;20032;-73
2021/07/10 01:01:59;;;;;;;28.00;22.33;;;;;;;;;;5038454;28;20049;-74
2021/07/10 01:04:25;;;;;;;24.25;21.45;;;;;;;;;;5034240;28;20117;-73
2021/07/10 01:06:52;;;;;;;23.83;21.38;;;;;;;;;;5026469;28;20034;-71
2021/07/10 01:09:18;;;;;;;24.42;21.88;;;;;;;;;;5012048;28;20053;-72
2021/07/10 01:11:44;;;;;;;26.92;23.92;;;;;;;;;;5031431;28;20529;-73
2021/07/10 01:14:10;;;;;;;25.73;23.05;;;;;;;;;;5035881;28;20547;-73
2021/07/10 01:16:37;;;;;;;26.80;22.33;;;;;;;;;;5031802;28;20136;-73
2021/07/10 01:19:03;;;;;;;26.80;23.00;;;;;;;;;;5035661;28;20489;-70
2021/07/10 01:21:29;;;;;;;24.42;21.83;;;;;;;;;;5029863;28;20116;-72
2021/07/10 01:23:55;;;;;;;25.88;22.48;;;;;;;;;;5038206;28;20046;-73
2021/07/10 01:26:21;;;;;;;28.20;24.00;;;;;;;;;;5030505;28;20095;-73
2021/07/10 01:28:48;;;;;;;31.75;26.33;;;;;;;;;;5017486;28;20133;-73
2021/07/10 01:31:15;;;;;;;27.05;23.95;;;;;;;;;;5034277;28;20052;-73
2021/07/10 01:33:41;;;;;;;27.10;23.73;;;;;;;;;;5028103;28;20037;-73
2021/07/10 01:36:07;;;;;;;24.27;21.77;;;;;;;;;;5028651;28;20037;-73
2021/07/10 01:38:33;;;;;;;24.77;22.25;;;;;;;;;;5028208;28;20033;-73
2021/07/10 01:40:59;;;;;;;27.75;24.77;;;;;;;;;;5038122;28;20056;-71
2021/07/10 01:43:26;;;;;;;29.95;25.52;;;;;;;;;;5029713;28;20060;-71
2021/07/10 01:45:52;;;;;;;26.63;23.83;;;;;;;;;;5037400;28;20049;-71
2021/07/10 01:48:18;;;;;;;26.73;23.83;;;;;;;;;;5034539;28;20103;-71
2021/07/10 01:50:47;;;;;;;28.70;24.00;;;;;;;;;;5045073;28;20035;-71
2021/07/10 01:53:14;;;;;;;25.60;22.58;;;;;;;;;;5015710;28;20103;-71
2021/07/10 01:55:40;;;;;;;25.20;22.50;;;;;;;;;;5038090;28;20490;-72
2021/07/10 01:58:06;;;;;;;25.63;21.83;;;;;;;;;;5037569;28;20560;-72
2021/07/10 02:00:34;;;;;;;27.00;23.95;;;;;;;;;;5044108;28;20413;-71
2021/07/10 02:03:01;;;;;;;33.00;25.58;;;;;;;;;;5033274;28;20041;-71
2021/07/10 02:05:28;;;;;;;32.83;26.42;;;;;;;;;;5043630;28;20033;-71
2021/07/10 02:07:56;;;;;;;30.77;25.02;;;;;;;;;;5041394;28;20029;-72
2021/07/10 02:10:22;;;;;;;30.90;25.63;;;;;;;;;;5035493;28;20117;-72
2021/07/10 02:12:50;;;;;;;29.13;24.25;;;;;;;;;;5021416;28;20505;-72
2021/07/10 02:15:16;;;;;;;26.73;23.95;;;;;;;;;;5031013;28;20454;-72
2021/07/10 02:17:44;;;;;;;26.90;23.33;;;;;;;;;;5040662;28;20103;-72
2021/07/10 02:20:11;;;;;;;31.73;25.85;;;;;;;;;;5041399;28;20041;-72
2021/07/10 02:22:37;;;;;;;28.70;25.05;;;;;;;;;;5022994;28;20041;-72
2021/07/10 02:25:08;;;;;;;30.58;24.92;;;;;;;;;;5035236;28;20402;-72
2021/07/10 02:27:34;;;;;;;32.42;26.08;;;;;;;;;;5018329;28;20061;-72
2021/07/10 02:30:00;;;;;;;30.15;25.52;;;;;;;;;;5039527;28;20045;-72
2021/07/10 02:32:26;;;;;;;30.90;24.88;;;;;;;;;;5029417;28;20045;-72
2021/07/10 02:34:53;;;;;;;27.20;24.27;;;;;;;;;;5030740;28;20063;-72
2021/07/10 02:37:19;;;;;;;26.52;23.17;;;;;;;;;;5037863;28;20044;-72
2021/07/10 02:39:45;;;;;;;26.70;23.58;;;;;;;;;;5035746;28;20042;-71
2021/07/10 02:42:11;;;;;;;28.75;24.27;;;;;;;;;;5040332;28;20163;-71
2021/07/10 02:44:38;;;;;;;26.50;23.35;;;;;;;;;;5012110;28;20067;-71
2021/07/10 02:47:04;;;;;;;32.55;26.35;;;;;;;;;;5036124;28;20040;-71
2021/07/10 02:49:30;;;;;;;33.60;26.52;;;;;;;;;;5041753;28;20378;-72
2021/07/10 02:51:56;;;;;;;37.83;29.23;;;;;;;;;;5031329;28;20397;-72
2021/07/10 02:54:22;;;;;;;34.67;27.92;;;;;;;;;;5035993;28;20041;-72
2021/07/10 02:56:48;;;;;;;36.22;28.25;;;;;;;;;;5031210;28;20275;-73
2021/07/10 02:59:15;;;;;;;35.45;27.92;;;;;;;;;;5039292;28;20037;-72
2021/07/10 03:01:43;;;;;;;32.00;26.45;;;;;;;;;;5032686;28;20046;-72
2021/07/10 03:04:09;;;;;;;37.50;29.02;;;;;;;;;;5036425;28;20061;-72
2021/07/10 03:06:35;;;;;;;34.55;27.52;;;;;;;;;;5036142;28;20083;-72
2021/07/10 03:09:01;;;;;;;32.97;26.77;;;;;;;;;;5035941;28;20469;-72
2021/07/10 03:11:28;;;;;;;34.58;27.23;;;;;;;;;;5021054;28;20417;-73
2021/07/10 03:13:54;;;;;;;35.05;27.83;;;;;;;;;;5044402;28;20037;-72
2021/07/10 03:16:20;;;;;;;31.88;25.75;;;;;;;;;;5035181;28;20551;-73
2021/07/10 03:18:46;;;;;;;36.35;27.77;;;;;;;;;;5035450;28;20533;-72
2021/07/10 03:21:12;;;;;;;34.65;26.42;;;;;;;;;;5036823;28;20053;-72
2021/07/10 03:23:38;;;;;;;35.20;26.48;;;;;;;;;;5044965;28;20041;-72
2021/07/10 03:26:05;;;;;;;36.53;27.60;;;;;;;;;;5038055;28;20066;-72
2021/07/10 03:28:31;;;;;;;39.20;27.65;;;;;;;;;;5038299;28;20405;-72
2021/07/10 03:30:57;;;;;;;34.05;25.02;;;;;;;;;;5037987;28;20033;-72
2021/07/10 03:33:23;;;;;;;30.98;25.27;;;;;;;;;;5032410;28;20044;-72
2021/07/10 03:35:50;;;;;;;34.28;25.90;;;;;;;;;;5043190;28;20041;-72
2021/07/10 03:38:16;;;;;;;30.50;23.05;;;;;;;;;;5031090;28;20041;-72
2021/07/10 03:40:42;;;;;;;33.47;26.15;;;;;;;;;;5038285;28;20037;-72
2021/07/10 03:43:08;;;;;;;29.92;24.30;;;;;;;;;;5031391;28;20037;-72
2021/07/10 03:45:35;;;;;;;32.20;24.58;;;;;;;;;;5016780;28;20053;-72
2021/07/10 03:48:03;;;;;;;34.80;25.17;;;;;;;;;;5032034;28;20064;-72
2021/07/10 03:50:29;;;;;;;28.75;23.15;;;;;;;;;;5041480;28;20497;-72
2021/07/10 03:52:55;;;;;;;34.08;25.23;;;;;;;;;;5036599;28;20043;-72
2021/07/10 03:55:21;;;;;;;31.23;24.20;;;;;;;;;;5033130;28;20076;-72
2021/07/10 03:57:47;;;;;;;27.23;21.92;;;;;;;;;;5031617;28;20091;-72
2021/07/10 04:00:15;;;;;;;37.83;26.63;;;;;;;;;;5014986;28;20065;-72
2021/07/10 04:02:42;;;;;;;35.22;25.20;;;;;;;;;;5008017;28;21232;-72
2021/07/10 04:05:10;;;;;;;37.72;26.17;;;;;;;;;;5019923;28;20099;-72
2021/07/10 04:07:37;;;;;;;37.17;26.58;;;;;;;;;;5017132;28;20084;-72
2021/07/10 04:10:05;;;;;;;32.85;26.13;;;;;;;;;;5010933;28;20080;-72
2021/07/10 04:12:31;;;;;;;35.08;26.75;;;;;;;;;;5013355;28;20040;-72
2021/07/10 04:15:00;;;;;;;34.75;25.83;;;;;;;;;;5009412;28;20041;-72
2021/07/10 04:17:31;;;;;;;36.05;25.45;;;;;;;;;;5020503;28;20401;-72
2021/07/10 04:19:57;;;;;;;37.00;27.42;;;;;;;;;;5012539;28;20040;-73
2021/07/10 04:22:24;;;;;;;37.50;29.20;;;;;;;;;;5012900;28;20044;-73
2021/07/10 04:24:51;;;;;;;35.92;28.08;;;;;;;;;;5011070;28;20052;-72
2021/07/10 04:27:17;;;;;;;31.80;27.05;;;;;;;;;;5016276;28;20045;-73
2021/07/10 04:29:45;;;;;;;39.38;29.50;;;;;;;;;;5015872;28;20048;-73
2021/07/10 04:32:15;;;;;;;39.30;28.80;;;;;;;;;;5017491;28;20048;-71
2021/07/10 04:34:41;;;;;;;39.47;30.10;;;;;;;;;;5011251;28;20548;-72
2021/07/10 04:37:07;;;;;;;38.88;29.33;;;;;;;;;;5015916;28;20046;-72
2021/07/10 04:39:33;;;;;;;37.92;28.95;;;;;;;;;;5013422;28;20387;-72
2021/07/10 04:42:00;;;;;;;38.22;28.83;;;;;;;;;;5017395;28;20572;-72
2021/07/10 04:44:26;;;;;;;34.97;30.20;;;;;;;;;;5011410;28;20508;-73
2021/07/10 04:46:53;;;;;;;39.10;31.02;;;;;;;;;;5016483;28;20053;-73
2021/07/10 04:49:19;;;;;;;41.38;30.40;;;;;;;;;;5009941;28;20042;-73
2021/07/10 04:51:45;;;;;;;39.35;30.10;;;;;;;;;;5015228;28;20037;-73
2021/07/10 04:54:11;;;;;;;38.05;30.05;;;;;;;;;;5018808;28;20511;-73
2021/07/10 04:56:37;;;;;;;41.70;30.40;;;;;;;;;;5009345;28;20041;-72
2021/07/10 04:59:03;;;;;;;36.20;28.63;;;;;;;;;;5016167;28;20041;-72
2021/07/10 05:01:30;;;;;;;37.33;29.70;;;;;;;;;;5025993;28;20369;-72
2021/07/10 05:03:58;;;;;;;35.83;30.02;;;;;;;;;;5034829;28;20041;-72
2021/07/10 05:06:24;;;;;;;36.75;28.83;;;;;;;;;;5028404;28;20039;-72
2021/07/10 05:08:50;;;;;;;35.47;29.02;;;;;;;;;;5034915;28;20037;-72
2021/07/10 05:11:17;;;;;;;39.35;29.38;;;;;;;;;;5031210;28;20494;-73
2021/07/10 05:13:43;;;;;;;39.53;30.33;;;;;;;;;;5042935;28;20069;-73
2021/07/10 05:16:10;;;;;;;38.33;31.08;;;;;;;;;;5025763;28;20092;-73
2021/07/10 05:18:38;;;;;;;37.72;30.88;;;;;;;;;;5034310;28;20045;-73
2021/07/10 05:21:05;;;;;;;35.80;30.30;;;;;;;;;;5033719;28;20075;-73
2021/07/10 05:23:31;;;;;;;35.45;28.15;;;;;;;;;;5016921;28;20029;-73
2021/07/10 05:25:57;;;;;;;31.77;27.63;;;;;;;;;;5031271;28;20087;-73
2021/07/10 05:28:23;;;;;;;31.80;26.15;;;;;;;;;;5042582;28;20355;-73
2021/07/10 05:30:50;;;;;;;34.28;29.45;;;;;;;;;;5046064;28;20097;-73
2021/07/10 05:33:19;;;;;;;35.70;28.92;;;;;;;;;;5020692;28;20580;-73
2021/07/10 05:35:47;;;;;;;31.95;28.15;;;;;;;;;;5040370;28;20037;-73
2021/07/10 05:38:14;;;;;;;34.55;28.00;;;;;;;;;;5022043;28;20056;-73
2021/07/10 05:40:40;;;;;;;35.38;28.52;;;;;;;;;;5037692;28;20389;-73
2021/07/10 05:43:06;;;;;;;29.50;25.50;;;;;;;;;;5030502;28;20334;-73
2021/07/10 05:45:32;;;;;;;31.70;27.77;;;;;;;;;;5026215;28;20190;-73
2021/07/10 05:47:59;;;;;;;30.50;27.05;;;;;;;;;;5031165;28;20044;-73
2021/07/10 05:50:25;;;;;;;30.77;27.45;;;;;;;;;;5036843;28;20044;-73
2021/07/10 05:52:51;;;;;;;31.02;27.73;;;;;;;;;;5035450;28;20381;-73
2021/07/10 05:55:18;;;;;;;28.52;25.42;;;;;;;;;;5039327;28;20047;-73
2021/07/10 05:57:44;;;;;;;31.38;27.05;;;;;;;;;;5030766;28;20049;-73
2021/07/10 06:00:11;;;;;;;29.58;26.35;;;;;;;;;;5043281;28;20060;-73
2021/07/10 06:02:38;;;;;;;31.08;27.20;;;;;;;;;;5032588;28;20037;-73
2021/07/10 06:05:05;;;;;;;32.60;29.13;;;;;;;;;;5016006;28;20063;-74
2021/07/10 06:07:31;;;;;;;33.65;30.02;;;;;;;;;;5018825;28;20526;-74
2021/07/10 06:09:58;;;;;;;36.25;30.42;;;;;;;;;;5040250;28;20032;-74
2021/07/10 06:12:24;;;;;;;31.85;28.48;;;;;;;;;;5036422;28;20435;-74
2021/07/10 06:14:50;;;;;;;34.20;30.17;;;;;;;;;;5021544;28;20092;-73
2021/07/10 06:17:16;;;;;;;36.03;30.23;;;;;;;;;;5039335;28;20029;-73
2021/07/10 06:19:42;;;;;;;34.35;29.67;;;;;;;;;;5036469;28;20187;-73
2021/07/10 06:22:09;;;;;;;34.65;30.85;;;;;;;;;;5034790;28;20406;-73
2021/07/10 06:24:35;;;;;;;32.65;29.00;;;;;;;;;;5032856;28;20038;-73
2021/07/10 06:27:01;;;;;;;32.10;27.85;;;;;;;;;;5038958;28;20040;-73
2021/07/10 06:29:27;;;;;;;32.78;29.10;;;;;;;;;;5031780;28;20160;-73
2021/07/10 06:31:54;;;;;;;32.78;29.27;;;;;;;;;;5037774;28;20456;-73
2021/07/10 06:34:20;;;;;;;31.23;27.50;;;;;;;;;;5033523;28;20128;-73
2021/07/10 06:36:46;;;;;;;33.00;29.52;;;;;;;;;;5039325;28;20029;-73
2021/07/10 06:39:12;;;;;;;31.63;28.27;;;;;;;;;;5035935;28;20040;-73
2021/07/10 06:41:38;;;;;;;31.35;27.95;;;;;;;;;;5041288;28;20486;-74
2021/07/10 06:44:05;;;;;;;29.60;26.40;;;;;;;;;;5035397;28;20111;-74
2021/07/10 06:46:32;;;;;;;31.48;28.10;;;;;;;;;;5038814;28;20463;-74
2021/07/10 06:48:58;;;;;;;31.83;28.05;;;;;;;;;;5043555;28;20045;-74
2021/07/10 06:51:24;;;;;;;33.10;29.23;;;;;;;;;;5037367;28;20033;-74
2021/07/10 06:53:51;;;;;;;31.55;28.15;;;;;;;;;;5039075;28;20397;-74
2021/07/10 06:56:17;;;;;;;29.25;26.20;;;;;;;;;;5032599;28;20477;-74
2021/07/10 06:58:43;;;;;;;30.65;27.50;;;;;;;;;;5039035;28;20419;-74
2021/07/10 07:01:09;;;;;;;33.65;28.58;;;;;;;;;;5032036;28;20557;-74
2021/07/10 07:03:35;;;;;;;31.27;27.88;;;;;;;;;;5036564;28;20427;-74
2021/07/10 07:06:02;;;;;;;34.83;30.33;;;;;;;;;;5034153;28;20045;-74
2021/07/10 07:08:28;;;;;;;31.80;28.38;;;;;;;;;;5040790;28;20091;-74
2021/07/10 07:10:54;;;;;;;33.80;29.48;;;;;;;;;;5031899;28;20044;-74
2021/07/10 07:13:20;;;;;;;33.97;29.27;;;;;;;;;;5039889;28;20040;-74
2021/07/10 07:15:46;;;;;;;27.52;23.98;;;;;;;;;;5033704;28;20037;-74
2021/07/10 07:18:15;;;;;;;29.33;26.13;;;;;;;;;;5036980;28;20037;-74
2021/07/10 07:20:42;;;;;;;29.35;25.20;;;;;;;;;;5030866;28;20037;-74
2021/07/10 07:23:08;;;;;;;30.30;24.77;;;;;;;;;;5015484;28;20541;-74
2021/07/10 07:25:34;;;;;;;30.25;26.77;;;;;;;;;;5034992;28;20107;-74
2021/07/10 07:28:01;;;;;;;31.30;27.40;;;;;;;;;;5038328;28;20397;-74
2021/07/10 07:30:27;;;;;;;33.05;27.42;;;;;;;;;;5038198;28;20710;-74
2021/07/10 07:32:53;;;;;;;32.42;27.42;;;;;;;;;;5034976;28;20486;-74
2021/07/10 07:35:20;;;;;;;27.48;23.75;;;;;;;;;;5040577;28;20044;-74
2021/07/10 07:37:46;;;;;;;26.98;24.08;;;;;;;;;;5022958;28;20037;-73
2021/07/10 07:40:17;;;;;;;28.80;25.83;;;;;;;;;;5034766;28;20476;-74
2021/07/10 07:42:44;;;;;;;27.88;23.73;;;;;;;;;;5030378;28;20045;-74
2021/07/10 07:45:10;;;;;;;30.05;26.67;;;;;;;;;;5037916;28;20037;-74
2021/07/10 07:47:37;;;;;;;32.30;26.63;;;;;;;;;;5037768;28;20037;-74
2021/07/10 07:50:05;;;;;;;30.25;27.13;;;;;;;;;;5027474;28;20057;-74
2021/07/10 07:52:31;;;;;;;30.75;27.23;;;;;;;;;;4999903;28;20064;-75
2021/07/10 07:54:57;;;;;;;31.48;27.92;;;;;;;;;;5018618;28;20045;-75
2021/07/10 07:57:24;;;;;;;30.63;26.63;;;;;;;;;;5038012;28;20037;-75
2021/07/10 07:59:50;;;;;;;27.48;24.63;;;;;;;;;;5022179;28;20053;-75
2021/07/10 08:02:16;;;;;;;26.98;21.88;;;;;;;;;;5032421;28;20044;-75
2021/07/10 08:04:42;;;;;;;24.27;21.45;;;;;;;;;;5045155;28;20431;-75
2021/07/10 08:07:08;;;;;;;26.13;22.50;;;;;;;;;;5032641;28;20451;-74
2021/07/10 08:09:34;;;;;;;27.67;22.52;;;;;;;;;;5023011;28;20550;-74
2021/07/10 08:12:01;;;;;;;25.60;22.88;;;;;;;;;;5019923;28;20038;-74
2021/07/10 08:14:27;;;;;;;25.63;22.92;;;;;;;;;;5035491;28;20032;-75
2021/07/10 08:16:53;;;;;;;25.85;22.77;;;;;;;;;;5035695;28;20113;-75
2021/07/10 08:19:19;;;;;;;24.83;22.38;;;;;;;;;;5034964;28;20080;-75
2021/07/10 08:21:46;;;;;;;25.92;23.02;;;;;;;;;;5041693;28;20044;-74
2021/07/10 08:24:12;;;;;;;26.08;23.08;;;;;;;;;;5025936;28;20385;-74
2021/07/10 08:26:38;;;;;;;27.38;24.52;;;;;;;;;;5035316;28;20049;-74
2021/07/10 08:29:05;;;;;;;28.92;23.95;;;;;;;;;;5030910;28;20039;-75
2021/07/10 08:31:33;;;;;;;27.02;24.30;;;;;;;;;;5035052;28;20047;-75
2021/07/10 08:33:59;;;;;;;28.52;25.30;;;;;;;;;;5028683;28;20497;-75
2021/07/10 08:36:25;;;;;;;28.77;25.70;;;;;;;;;;5036013;28;20422;-74
2021/07/10 08:38:52;;;;;;;28.42;25.38;;;;;;;;;;5030069;28;20308;-74
2021/07/10 08:41:19;;;;;;;27.83;24.70;;;;;;;;;;5043506;28;20393;-75
2021/07/10 08:43:45;;;;;;;27.67;24.42;;;;;;;;;;5016885;28;20378;-74
2021/07/10 08:46:13;;;;;;;26.38;23.52;;;;;;;;;;5021586;28;20056;-74
2021/07/10 08:48:39;;;;;;;27.55;24.65;;;;;;;;;;5011530;28;20057;-74
2021/07/10 08:51:07;;;;;;;25.83;23.33;;;;;;;;;;5029848;28;20524;-74
2021/07/10 08:53:34;;;;;;;27.38;24.35;;;;;;;;;;5036867;28;20033;-74
2021/07/10 08:56:00;;;;;;;24.92;22.42;;;;;;;;;;5032430;28;20507;-73
2021/07/10 08:58:26;;;;;;;25.88;22.50;;;;;;;;;;5036461;28;20494;-73
2021/07/10 09:00:53;;;;;;;25.77;22.95;;;;;;;;;;5012539;28;20099;-73
2021/07/10 09:03:19;;;;;;;27.02;24.13;;;;;;;;;;5021945;28;20104;-73
2021/07/10 09:05:45;;;;;;;24.95;22.27;;;;;;;;;;5012186;28;20060;-73
2021/07/10 09:08:21;;;;;;;25.30;22.70;;;;;;;;;;5023782;28;20041;-73
2021/07/10 09:10:58;;;;;;;24.50;21.85;;;;;;;;;;5027859;28;20099;-73
2021/07/10 09:13:50;;;;;;;24.75;22.15;;;;;;;;;;5033763;28;20041;-73
2021/07/10 09:16:23;;;;;;;26.80;23.73;;;;;;;;;;5028690;28;20042;-73
2021/07/10 09:18:58;;;;;;;28.10;23.83;;;;;;;;;;5035431;28;20389;-72
2021/07/10 09:21:35;;;;;;;28.58;25.52;;;;;;;;;;5029504;28;20494;-73
2021/07/10 09:24:01;;;;;;;29.02;25.98;;;;;;;;;;5042236;28;20033;-73
2021/07/10 09:26:28;;;;;;;27.63;24.75;;;;;;;;;;5030820;28;20171;-73
2021/07/10 09:28:58;;;;;;;29.00;25.90;;;;;;;;;;5034850;28;20060;-73
2021/07/10 09:31:26;;;;;;;27.85;24.33;;;;;;;;;;5029427;28;20029;-73
2021/07/10 09:33:56;;;;;;;26.33;23.52;;;;;;;;;;5025686;28;20053;-73
2021/07/10 09:36:22;;;;;;;26.75;24.15;;;;;;;;;;5016861;28;20103;-73
2021/07/10 09:38:52;;;;;;;28.70;25.70;;;;;;;;;;5033283;28;20050;-73
2021/07/10 09:41:23;;;;;;;28.50;25.40;;;;;;;;;;5013666;28;20441;-73
2021/07/10 09:43:49;;;;;;;29.02;26.13;;;;;;;;;;5041098;28;20044;-73
2021/07/10 09:46:24;;;;;;;28.65;25.85;;;;;;;;;;5034167;28;20034;-73
2021/07/10 09:48:51;;;;;;;27.88;25.08;;;;;;;;;;5032138;28;20065;-72
2021/07/10 09:51:17;;;;;;;26.55;23.67;;;;;;;;;;5032048;28;20501;-72
2021/07/10 09:53:57;;;;;;;28.42;25.50;;;;;;;;;;5037157;28;20045;-74
2021/07/10 09:56:24;;;;;;;24.90;22.40;;;;;;;;;;5027803;28;20612;-74
2021/07/10 09:58:50;;;;;;;25.63;23.02;;;;;;;;;;5032877;28;20049;-74
2021/07/10 10:01:29;;;;;;;22.63;20.38;;;;;;;;;;5033690;28;20042;-74
2021/07/10 10:03:55;;;;;;;25.63;22.88;;;;;;;;;;5038625;28;20064;-74
2021/07/10 10:06:48;;;;;;;23.67;21.35;;;;;;;;;;5034570;28;20087;-74
2021/07/10 10:09:32;;;;;;;23.40;21.02;;;;;;;;;;5033026;28;20064;-74
2021/07/10 10:11:59;;;;;;;20.58;18.58;;;;;;;;;;5035058;28;20493;-74
2021/07/10 10:14:27;;;;;;;21.30;19.05;;;;;;;;;;5025541;28;20405;-74
2021/07/10 10:16:53;;;;;;;18.67;16.77;;;;;;;;;;5040110;28;20093;-74
2021/07/10 10:19:22;;;;;;;19.55;17.60;;;;;;;;;;5030454;28;20033;-74
2021/07/10 10:21:49;;;;;;;19.30;17.33;;;;;;;;;;5043109;28;20476;-74
2021/07/10 10:24:16;;;;;;;18.35;16.52;;;;;;;;;;5014327;28;20081;-74
2021/07/10 10:26:43;;;;;;;18.52;16.73;;;;;;;;;;5038582;28;20117;-74
2021/07/10 10:29:10;;;;;;;19.17;16.98;;;;;;;;;;5034531;28;20068;-74
2021/07/10 10:31:40;;;;;;;18.50;16.55;;;;;;;;;;5041937;28;20402;-74
2021/07/10 10:34:07;;;;;;;16.35;14.65;;;;;;;;;;5031953;28;20485;-74
2021/07/10 10:36:34;;;;;;;17.60;15.73;;;;;;;;;;5027300;28;20489;-74
2021/07/10 10:39:01;;;;;;;16.83;14.40;;;;;;;;;;5036225;28;20377;-74
2021/07/10 10:41:27;;;;;;;15.30;13.80;;;;;;;;;;5038807;28;20037;-74
2021/07/10 10:43:56;;;;;;;15.35;13.85;;;;;;;;;;5032526;28;20030;-74
2021/07/10 10:46:25;;;;;;;15.63;14.13;;;;;;;;;;5040098;28;20033;-74
2021/07/10 10:48:52;;;;;;;15.07;13.57;;;;;;;;;;5019730;28;20428;-74
2021/07/10 10:51:27;;;;;;;14.20;12.85;;;;;;;;;;5038685;28;20050;-74
2021/07/10 10:54:13;;;;;;;12.77;11.55;;;;;;;;;;5034798;28;20162;-74
2021/07/10 10:56:40;;;;;;;18.00;16.17;;;;;;;;;;5045495;28;20131;-74
2021/07/10 10:59:25;;;;;;;21.67;19.55;;;;;;;;;;5019071;28;20485;-74
2021/07/10 11:01:51;;;;;;;22.30;19.20;;;;;;;;;;5040108;28;20052;-74
2021/07/10 11:04:36;;;;;;;22.00;19.65;;;;;;;;;;5039367;28;20115;-74
2021/07/10 11:07:20;;;;;;;19.50;17.63;;;;;;;;;;5032036;28;21264;-74
2021/07/10 11:10:05;;;;;;;18.88;16.98;;;;;;;;;;5029537;28;20461;-74
2021/07/10 11:12:52;;;;;;;18.63;16.75;;;;;;;;;;5036489;28;20040;-74
2021/07/10 11:15:25;;;;;;;20.52;18.33;;;;;;;;;;5029982;28;20026;-74
2021/07/10 11:18:00;;;;;;;20.23;18.13;;;;;;;;;;5034789;28;20040;-74
2021/07/10 11:20:56;;;;;;;18.73;16.75;;;;;;;;;;5037189;28;20040;-74
2021/07/10 11:23:40;;;;;;;18.50;16.60;;;;;;;;;;5022085;28;20405;-74
2021/07/10 11:26:06;;;;;;;;;;;;;;;;;;5032457;28;20033;-73
2021/07/10 11:28:32;;;;;;;18.00;16.10;;;;;;;;;;5036837;28;19923;-73
2021/07/10 11:31:00;;;;;;;16.75;15.15;;;;;;;;;;5033425;28;20037;-73
2021/07/10 11:33:45;;;;;;;17.77;15.93;;;;;;;;;;5034333;28;20025;-73
2021/07/10 11:36:29;;;;;;;16.25;14.63;;;;;;;;;;5032953;28;20556;-73
2021/07/10 11:38:55;;;;;;;15.82;14.43;;;;;;;;;;5020252;28;20071;-73
2021/07/10 11:41:32;;;;;;;16.70;15.20;;;;;;;;;;5029754;28;20029;-73
2021/07/10 11:44:11;;;;;;;17.27;15.57;;;;;;;;;;5027953;28;20073;-73
2021/07/10 11:47:10;;;;;;;16.55;14.82;;;;;;;;;;5028292;28;20381;-74
2021/07/10 11:49:39;;;;;;;15.98;14.48;;;;;;;;;;4996652;28;20107;-74
2021/07/10 11:52:15;;;;;;;14.73;13.18;;;;;;;;;;5032752;28;20048;-74
2021/07/10 11:54:44;;;;;;;15.63;14.13;;;;;;;;;;5018126;28;20477;-74
2021/07/10 11:57:11;;;;;;;17.05;15.13;;;;;;;;;;5028164;28;20404;-74
2021/07/10 11:59:38;;;;;;;15.38;13.77;;;;;;;;;;5045638;28;20416;-74
2021/07/10 12:02:20;;;;;;;15.30;13.90;;;;;;;;;;5034501;28;20499;-75
2021/07/10 12:05:02;;;;;;;15.38;13.98;;;;;;;;;;5020681;28;20400;-75
2021/07/10 12:07:29;;;;;;;13.32;12.05;;;;;;;;;;5035771;28;20413;-75
2021/07/10 12:09:55;;;;;;;14.43;12.95;;;;;;;;;;5036655;28;20030;-75
2021/07/10 12:12:21;;;;;;;15.40;13.95;;;;;;;;;;5011361;28;20042;-74
2021/07/10 12:14:54;;;;;;;13.95;12.52;;;;;;;;;;5035830;28;20041;-74
2021/07/10 12:17:21;;;;;;;15.68;14.27;;;;;;;;;;5037248;28;20063;-75
2021/07/10 12:19:48;;;;;;;15.25;13.82;;;;;;;;;;5043966;28;20458;-75
2021/07/10 12:22:14;;;;;;;15.43;14.00;;;;;;;;;;5023238;28;20115;-75
2021/07/10 12:24:40;;;;;;;13.60;12.20;;;;;;;;;;5040449;28;20036;-75
2021/07/10 12:27:09;;;;;;;16.10;14.60;;;;;;;;;;5011379;28;20412;-74
2021/07/10 12:29:35;;;;;;;15.25;13.65;;;;;;;;;;5034956;28;20541;-74
2021/07/10 12:32:02;;;;;;;13.82;12.38;;;;;;;;;;5018899;28;20059;-74
2021/07/10 12:34:28;;;;;;;16.08;14.57;;;;;;;;;;5019023;28;20045;-74
2021/07/10 12:36:56;;;;;;;15.27;13.77;;;;;;;;;;5034969;28;20033;-74
2021/07/10 12:39:26;;;;;;;15.90;13.18;;;;;;;;;;5011226;28;20371;-74
2021/07/10 12:41:54;;;;;;;15.13;13.38;;;;;;;;;;5040377;28;20033;-74
2021/07/10 12:44:27;;;;;;;14.10;12.55;;;;;;;;;;5029542;28;20029;-74
2021/07/10 12:46:53;;;;;;;;;;;;;;;;;;5033591;28;20063;-74
2021/07/10 12:49:20;;;;;;;12.68;11.35;;;;;;;;;;5040258;28;20360;-74
2021/07/10 12:51:46;;;;;;;12.68;11.48;;;;;;;;;;5020712;28;20390;-74
2021/07/10 12:54:28;;;;;;;12.18;10.95;;;;;;;;;;5036456;28;20083;-74
2021/07/10 12:56:57;;;;;;;14.32;12.85;;;;;;;;;;5042805;28;20041;-74
2021/07/10 12:59:23;;;;;;;13.68;12.43;;;;;;;;;;5016060;28;20029;-75
2021/07/10 13:01:50;;;;;;;13.70;12.30;;;;;;;;;;5032370;28;20048;-74
2021/07/10 13:04:17;;;;;;;12.75;11.45;;;;;;;;;;5012761;28;20072;-74
2021/07/10 13:06:43;;;;;;;13.38;12.15;;;;;;;;;;5034265;28;20404;-74
2021/07/10 13:09:09;;;;;;;12.25;10.95;;;;;;;;;;5031259;28;20051;-74
2021/07/10 13:11:52;;;;;;;11.70;10.52;;;;;;;;;;5024221;28;20083;-74
2021/07/10 13:14:22;;;;;;;11.30;10.20;;;;;;;;;;5025711;28;20037;-74
2021/07/10 13:16:48;;;;;;;12.20;10.98;;;;;;;;;;5018487;28;20079;-74
2021/07/10 13:19:14;;;;;;;11.48;10.38;;;;;;;;;;5034374;28;20048;-74
2021/07/10 13:21:41;;;;;;;11.95;10.75;;;;;;;;;;5034235;28;20037;-74
2021/07/10 13:24:13;;;;;;;11.95;10.85;;;;;;;;;;5034139;28;20493;-74
2021/07/10 13:26:49;;;;;;;10.63;8.68;;;;;;;;;;5043138;28;20135;-74
2021/07/10 13:29:17;;;;;;;10.50;9.10;;;;;;;;;;5038009;28;20448;-74
2021/07/10 13:31:47;;;;;;;11.23;10.10;;;;;;;;;;5030055;28;20478;-74
2021/07/10 13:34:23;;;;;;;12.63;10.15;;;;;;;;;;5032368;28;20107;-74
2021/07/10 13:36:50;;;;;;;11.13;9.90;;;;;;;;;;5030936;28;20049;-74
2021/07/10 13:39:24;;;;;;;11.68;10.52;;;;;;;;;;5037047;28;20052;-74
2021/07/10 13:41:56;;;;;;;11.70;10.50;;;;;;;;;;5035381;28;20056;-74
2021/07/10 13:44:27;;;;;;;10.63;9.73;;;;;;;;;;5041194;28;20041;-74
2021/07/10 13:46:58;;;;;;;12.00;10.35;;;;;;;;;;5031219;28;20037;-74
2021/07/10 13:49:28;;;;;;;13.30;10.48;;;;;;;;;;5038134;28;20079;-74
2021/07/10 13:51:59;;;;;;;12.07;10.07;;;;;;;;;;5030463;28;20041;-73
2021/07/10 13:54:30;;;;;;;10.98;9.93;;;;;;;;;;5039516;28;20033;-73
2021/07/10 13:57:09;;;;;;;11.68;10.43;;;;;;;;;;5037390;28;20044;-73
2021/07/10 13:59:35;;;;;;;12.80;10.75;;;;;;;;;;5020635;28;20119;-73
2021/07/10 14:02:01;;;;;;;11.23;10.13;;;;;;;;;;5033481;28;20045;-73
2021/07/10 14:04:27;;;;;;;11.35;10.25;;;;;;;;;;5037597;28;20051;-73
2021/07/10 14:06:53;;;;;;;12.63;11.43;;;;;;;;;;5030122;28;20125;-73
2021/07/10 14:09:19;;;;;;;11.18;10.13;;;;;;;;;;5038888;28;20046;-74
2021/07/10 14:11:48;;;;;;;11.82;10.40;;;;;;;;;;5032264;28;20036;-74
2021/07/10 14:14:15;;;;;;;11.77;9.80;;;;;;;;;;5037470;28;20068;-74
2021/07/10 14:16:41;;;;;;;10.00;8.90;;;;;;;;;;5031673;28;20149;-74
2021/07/10 14:19:07;;;;;;;9.55;8.50;;;;;;;;;;5043163;28;20033;-74
2021/07/10 14:21:33;;;;;;;9.23;8.25;;;;;;;;;;5032773;28;20060;-74
2021/07/10 14:23:59;;;;;;;12.57;10.48;;;;;;;;;;5036540;28;20045;-74